Terminal Aerodrome Forecast
Issued by NWS Brownsville, TX

Home | Current Version | Previous Version | Text Only | Print | Product List | Glossary On
Versions: 1 2 3 4 5 6 7 8 9 10 11 12 13 14 15 16 17 18 19 20 21 22 23 24 25 26
000
FTUS44 KBRO 160300 AAB
TAFHRL
TAF AMD
KHRL 160337Z 1604/1624 01004KT P6SM BKN250
     FM161500 24005KT P6SM VCSH SCT040 BKN150
     FM161800 17010KT P6SM VCSH BKN025
      TEMPO 1618/1621 5SM -TSRA BKN020CB
     FM162100 18010KT P6SM VCTS BKN020CB BKN150
      TEMPO 1621/1624 5SM -TSRA BKN015CB=

USA.gov is the U.S. government's official web portal to all federal, state and local government web resources and services.